Stations météo

réclame
Mon MeteoGroup
Desenzano, Italie (16089): Température de l'air & dewpoint: 12.01.2019 13:00:00 - 18.01.2019 13:00:00 (CET)Desenzano, Italie (16089): Vitesse du vent: 12.01.2019 13:00:00 - 18.01.2019 13:00:00 (CET)Desenzano, Italie (16089): Direction du vent: 12.01.2019 13:00:00 - 18.01.2019 13:00:00 (CET)Desenzano, Italie (16089): reduced air pressure: 12.01.2019 13:00:00 - 18.01.2019 13:00:00 (CET)Desenzano, Italie (16089): Quantités de précipitations: 12.01.2019 13:00:00 - 18.01.2019 13:00:00 (CET)
Date & Time tt [°C] td [°C] ff [km/h] ff [knt] dd ppp [hPa] rr [mm]
18.01.2019 13:00:00 - - - - - - -
18.01.2019 12:00:00 6,3 5,4 13 7 ENE 1012,6 -
18.01.2019 11:00:00 7,1 6,5 4 2 NW 1012,1 -
18.01.2019 10:00:00 5,6 5,6 2 1 SW 1011,4 -
18.01.2019 09:00:00 4,6 4,6 2 1 SSW 1010,7 -
18.01.2019 08:00:00 5,1 5,1 4 2 SW 1009,8 -
18.01.2019 07:00:00 5,2 5,1 4 2 SW 1009,3 0,0
18.01.2019 06:00:00 5,6 5,6 4 2 SW 1009,5 -
18.01.2019 05:00:00 5,5 5,4 4 2 SSW 1009,2 -
18.01.2019 04:00:00 5,9 5,8 4 2 S 1009,5 -
18.01.2019 03:00:00 5,9 5,9 8 4 SW 1009,6 -
18.01.2019 02:00:00 6,1 6,1 5 3 SSW 1009,7 -
18.01.2019 01:00:00 6,5 6,5 0 0 N 1009,9 0,0
18.01.2019 00:00:00 6,6 6,6 0 0 N 1010,5 -
17.01.2019 23:00:00 6,8 6,7 0 0 N 1010,8 -
17.01.2019 22:00:00 6,7 6,4 0 0 N 1010,9 -
17.01.2019 21:00:00 6,8 6,4 0 0 N 1011,0 -
17.01.2019 20:00:00 7,1 6,6 0 0 N 1011,6 -
17.01.2019 19:00:00 7,2 6,6 0 0 N 1011,7 0,0
17.01.2019 18:00:00 7,3 6,5 0 0 N 1011,7 -
17.01.2019 17:00:00 7,6 6,7 2 1 NNW 1012,0 -
17.01.2019 16:00:00 7,5 6,1 0 0 N 1012,5 -
17.01.2019 15:00:00 7,3 5,6 0 0 N 1012,8 -
17.01.2019 14:00:00 7,5 5,3 5 3 NW 1013,6 -
17.01.2019 13:00:00 7,2 4,6 8 4 N 1014,1 0,0
17.01.2019 12:00:00 7,1 4,7 2 1 N 1015,2 -
17.01.2019 11:00:00 6,8 3,5 0 0 N 1016,0 -
17.01.2019 10:00:00 6,4 3,0 0 0 N 1015,6 -
17.01.2019 09:00:00 5,6 1,8 0 0 N 1015,4 -
17.01.2019 08:00:00 5,4 1,3 0 0 N 1015,4 -
17.01.2019 07:00:00 5,3 1,0 0 0 N 1015,7 0,0
17.01.2019 06:00:00 5,7 0,8 0 0 N 1015,9 -
17.01.2019 05:00:00 6,1 1,4 0 0 N 1016,2 -
17.01.2019 04:00:00 6,0 2,4 0 0 N 1016,7 -
17.01.2019 03:00:00 6,1 2,7 0 0 N 1017,1 -
17.01.2019 02:00:00 6,4 3,2 0 0 N 1017,3 -
17.01.2019 01:00:00 6,8 3,0 0 0 N 1017,9 0,0
17.01.2019 00:00:00 6,9 2,9 2 1 S 1018,3 -
16.01.2019 23:00:00 8,4 4,7 4 2 SE 1018,3 -
16.01.2019 22:00:00 9,2 4,0 4 2 S 1018,2 -
16.01.2019 21:00:00 8,9 4,5 5 3 SW 1017,8 -
16.01.2019 20:00:00 7,6 2,4 2 1 SSW 1018,0 -
16.01.2019 19:00:00 8,3 2,7 8 4 S 1017,9 0,0
16.01.2019 18:00:00 9,6 3,9 4 2 SSW 1017,8 -
16.01.2019 17:00:00 9,9 3,3 9 5 S 1017,5 -
16.01.2019 16:00:00 10,5 3,2 8 4 S 1017,5 -
16.01.2019 15:00:00 11,9 3,1 8 4 S 1017,4 -
16.01.2019 14:00:00 11,4 3,1 4 2 WSW 1018,1 -
16.01.2019 13:00:00 9,0 1,3 0 0 N 1019,1 0,0
16.01.2019 12:00:00 7,1 0,2 0 0 N 1020,0 -
16.01.2019 11:00:00 6,9 0,7 0 0 N 1020,5 -
16.01.2019 10:00:00 4,5 -1,8 0 0 N 1020,4 -
16.01.2019 09:00:00 0,7 -3,1 0 0 N 1020,1 -
16.01.2019 08:00:00 -0,1 -3,5 0 0 N 1019,9 -
16.01.2019 07:00:00 -0,1 -4,2 2 1 SSE 1019,9 0,0
16.01.2019 06:00:00 0,0 -4,7 0 0 N 1019,8 -
16.01.2019 05:00:00 0,6 -4,1 0 0 N 1020,0 -
16.01.2019 04:00:00 1,3 -4,0 0 0 N 1020,1 -
16.01.2019 03:00:00 1,2 -3,5 0 0 N 1020,1 -
16.01.2019 02:00:00 1,2 -2,8 0 0 N 1020,0 -
16.01.2019 01:00:00 1,4 -2,1 0 0 N 1020,1 0,0
16.01.2019 00:00:00 1,6 -2,4 0 0 N 1020,3 -
15.01.2019 23:00:00 2,2 -3,2 0 0 N 1020,4 -
15.01.2019 22:00:00 2,8 -4,1 0 0 N 1020,1 -
15.01.2019 21:00:00 3,4 -3,7 0 0 N 1019,6 -
15.01.2019 20:00:00 4,4 -3,2 0 0 N 1019,2 -
15.01.2019 19:00:00 6,2 -2,0 0 0 N 1018,8 0,0
15.01.2019 18:00:00 7,7 -1,6 0 0 N 1018,1 -
15.01.2019 17:00:00 9,9 -0,7 5 3 SW 1017,7 -
15.01.2019 16:00:00 - - - - - - -
15.01.2019 15:00:00 11,1 2,6 2 1 ENE 1017,2 -
15.01.2019 14:00:00 11,4 3,8 4 2 NNW 1017,4 -
15.01.2019 13:00:00 11,0 2,2 11 6 NW 1017,7 0,0
15.01.2019 12:00:00 9,9 2,6 18 10 NW 1018,2 -
15.01.2019 11:00:00 9,3 1,6 18 10 NNW 1018,7 -
15.01.2019 10:00:00 9,0 1,3 18 10 N 1018,1 -
15.01.2019 09:00:00 8,9 1,5 21 11 NNW 1017,3 -
15.01.2019 08:00:00 8,6 0,7 0 0 N 1016,4 -
15.01.2019 07:00:00 7,1 0,2 11 6 WNW 1016,1 0,0
15.01.2019 06:00:00 9,1 0,9 8 4 NNW 1015,4 -
15.01.2019 05:00:00 9,0 0,3 8 4 NNW 1014,8 -
15.01.2019 04:00:00 9,6 1,9 28 15 NNW 1014,0 -
15.01.2019 03:00:00 9,5 3,2 28 15 NNW 1013,9 -
15.01.2019 02:00:00 9,5 3,8 35 19 NNW 1013,0 -
15.01.2019 01:00:00 10,1 3,5 31 17 NNW 1012,8 0,0
15.01.2019 00:00:00 10,7 3,6 31 17 NNW 1012,1 -
14.01.2019 23:00:00 10,9 1,9 26 14 NW 1011,0 -
14.01.2019 22:00:00 10,4 -1,8 5 3 W 1010,1 -
14.01.2019 21:00:00 11,1 -3,9 9 5 W 1009,2 -
14.01.2019 20:00:00 11,0 -0,3 13 7 W 1007,9 -
14.01.2019 19:00:00 9,4 -0,9 8 4 W 1007,2 0,0
14.01.2019 18:00:00 7,9 -3,7 2 1 W 1006,2 -
14.01.2019 17:00:00 8,7 2,6 0 0 N 1005,5 -
14.01.2019 16:00:00 10,5 2,3 0 0 N 1004,6 -
14.01.2019 15:00:00 11,5 2,2 4 2 S 1004,3 -
14.01.2019 14:00:00 12,2 2,8 0 0 N 1004,0 -
14.01.2019 13:00:00 11,9 2,8 4 2 SSW 1004,6 -
14.01.2019 12:00:00 8,0 0,9 8 4 S 1004,8 -
14.01.2019 11:00:00 6,3 0,3 9 5 S 1005,0 -
14.01.2019 10:00:00 3,2 0,2 0 0 N 1004,0 -
14.01.2019 09:00:00 -0,1 -2,5 2 1 S 1003,6 -
14.01.2019 08:00:00 -0,9 -2,7 0 0 N 1002,5 -
14.01.2019 07:00:00 -0,4 -2,3 0 0 N 1000,6 0,0
14.01.2019 06:00:00 -0,3 -2,5 2 1 SSE 999,5 -
14.01.2019 05:00:00 0,1 -2,5 0 0 N 1000,0 -
14.01.2019 04:00:00 1,9 0,7 4 2 SSE 999,8 -
14.01.2019 03:00:00 0,8 -1,0 0 0 N 1000,6 -
14.01.2019 02:00:00 0,8 -1,0 0 0 N 1000,4 -
14.01.2019 01:00:00 1,0 -1,1 0 0 N 1001,2 0,0
14.01.2019 00:00:00 1,3 -1,1 0 0 N 1002,6 -
13.01.2019 23:00:00 1,4 -1,4 0 0 N 1003,8 -
13.01.2019 22:00:00 1,8 -1,7 0 0 N 1004,8 -
13.01.2019 21:00:00 2,5 -2,1 0 0 N 1005,5 -
13.01.2019 20:00:00 2,6 -2,2 2 1 SSW 1006,4 -
13.01.2019 19:00:00 3,2 -2,6 0 0 N 1006,6 0,0
13.01.2019 18:00:00 4,6 -2,1 0 0 N 1007,5 -
13.01.2019 17:00:00 6,4 -0,7 0 0 N 1008,7 -
13.01.2019 16:00:00 7,1 0,7 0 0 N 1008,9 -
13.01.2019 15:00:00 6,6 -1,2 0 0 N 1009,5 -
13.01.2019 14:00:00 6,9 -0,4 0 0 N 1010,5 -
13.01.2019 13:00:00 6,3 -0,3 0 0 N 1011,8 0,0
13.01.2019 12:00:00 5,4 0,3 8 4 ENE 1012,2 -
13.01.2019 11:00:00 3,5 -0,6 0 0 N 1012,9 -
13.01.2019 10:00:00 1,0 -2,8 0 0 N 1013,3 -
13.01.2019 09:00:00 -0,3 -3,2 0 0 N 1012,8 -
13.01.2019 08:00:00 -1,3 -4,2 0 0 N 1012,2 -
13.01.2019 07:00:00 -1,4 -4,6 0 0 N 1012,2 0,0
13.01.2019 06:00:00 -1,3 -4,4 0 0 N 1012,4 -
13.01.2019 05:00:00 -1,5 -4,4 0 0 N 1012,8 -
13.01.2019 04:00:00 -1,3 -4,2 0 0 N 1012,9 -
13.01.2019 03:00:00 -0,7 -4,1 0 0 N 1013,4 -
13.01.2019 02:00:00 0,0 -3,4 0 0 N 1013,7 -
13.01.2019 01:00:00 0,2 -3,4 0 0 N 1013,8 -
13.01.2019 00:00:00 0,0 -3,6 0 0 N 1014,7 -
12.01.2019 23:00:00 0,0 -3,6 0 0 N 1015,2 -
12.01.2019 22:00:00 -0,1 -3,7 0 0 N 1015,7 -
12.01.2019 21:00:00 -0,2 -4,0 0 0 N 1015,9 -
12.01.2019 20:00:00 -0,1 -4,2 0 0 N 1016,5 -
12.01.2019 19:00:00 0,3 -4,6 0 0 N 1017,3 0,0
12.01.2019 18:00:00 1,6 -4,4 0 0 N 1017,1 -
12.01.2019 17:00:00 3,6 -3,1 0 0 N 1017,2 -
12.01.2019 16:00:00 4,3 -2,4 0 0 N 1017,6 -
12.01.2019 15:00:00 5,2 -2,5 2 1 E 1017,8 -
12.01.2019 14:00:00 5,7 -4,0 0 0 N 1017,8 -
12.01.2019 13:00:00 6,4 -4,2 0 0 N 1018,2 0,0

tt = Température de l'air
td = dewpoint
ff = Vitesse du vent
dd = Direction du vent
ppp = reduced air pressure
rr = Quantités de précipitations

stations d'obs. à proximité